Flight Track Log - Related Links

Times and Time Zones

All times are in EDT time to prevent confusion due to time zone crossing. See the SWA3398 flight status page for this flight to view local times or setup timezone preferences in your user account.

Time Position Orientation Groundspeed Altitude Reporting Facility
EDT Latitude Longitude Course Direction KTS MPH feet Rate Location/Type
Tue 11:39:01 AM 40.7686 -73.1333 120° Southeast 146 168 1,900  Level Boston Center
Tue 11:40:01 AM 40.7419 -73.0728 91° East 124 143 3,900 1,100 Climbing Boston Center
Tue 11:41:01 AM 40.7403 -72.9769 92° East 187 215 4,100 1,850 Climbing Boston Center
Tue 11:42:01 AM 40.7367 -72.8564 98° East 267 307 7,600 1,950 Climbing Boston Center
Tue 11:43:01 AM 40.7244 -72.7414 145° Southeast 305 351 8,000 700 Climbing Boston Center
Tue 11:44:01 AM 40.6581 -72.6808 198° South 280 322 9,000 1,850 Climbing Boston Center
Tue 11:45:01 AM 40.5808 -72.7133 221° Southwest 230 265 11,700 3,050 Climbing Boston Center
Tue 11:46:01 AM 40.5117 -72.7922 221° Southwest 271 312 15,100 3,250 Climbing Boston Center
Tue 11:47:01 AM 40.4386 -72.8764 222° Southwest 306 352 18,200 3,050 Climbing Boston Center
Tue 11:48:01 AM 40.3631 -72.9658 221° Southwest 349 402 21,200 2,700 Climbing Boston Center
Tue 11:49:01 AM 40.2983 -73.0386 221° Southwest 361 415 23,600 2,400 Climbing Boston Center
Tue 11:50:01 AM 40.2164 -73.1303 219° Southwest 375 432 26,000 2,350 Climbing Boston Center
Tue 11:51:01 AM 40.1219 -73.2297 220° Southwest 392 451 28,300 2,000 Climbing Boston Center
Tue 11:52:01 AM 40.0358 -73.3236 222° Southwest 397 457 30,000 1,721 Climbing Boston Center
Tue 11:53:10 AM 39.9542 -73.4208 221° Southwest 386 444 32,000 1,800 Climbing Washington Center
Tue 11:54:11 AM 39.8706 -73.5153 220° Southwest 392 451 33,900 1,831 Climbing Washington Center
Tue 11:55:08 AM 39.7825 -73.6122 220° Southwest 404 465 35,600 1,780 Climbing Washington Center
Tue 11:56:09 AM 39.6925 -73.7119 220° Southwest 398 458 37,400 1,587 Climbing Washington Center
Tue 11:57:09 AM 39.6064 -73.8058 220° Southwest 398 458 38,800 1,240 Climbing Washington Center
Tue 11:58:10 AM 39.5222 -73.8967 221° Southwest 398 458 39,900 595 Climbing Washington Center
Tue 11:59:10 AM 39.4403 -73.9900 219° Southwest 398 458 40,000 51 Climbing Washington Center
Tue 12:00:08 PM 39.3539 -74.0806 220° Southwest 398 458 40,000  Level Washington Center
Tue 12:01:08 PM 39.2694 -74.1733 221° Southwest 405 466 40,000  Level Washington Center
Tue 12:02:09 PM 39.1853 -74.2661 220° Southwest 405 466 40,000  Level Washington Center
Tue 12:03:10 PM 39.0986 -74.3586 220° Southwest 405 466 40,000  Level Washington Center
Tue 12:04:09 PM 39.0142 -74.4483 220° Southwest 400 460 40,000  Level Washington Center
Tue 12:05:09 PM 38.9294 -74.5403 220° Southwest 400 460 40,000  Level Washington Center
Tue 12:06:10 PM 38.8447 -74.6322 219° Southwest 400 460 40,000  Level Washington Center
Tue 12:07:08 PM 38.7578 -74.7239 220° Southwest 400 460 40,000  Level Washington Center
Tue 12:08:09 PM 38.6731 -74.8153 219° Southwest 400 460 40,000  Level Washington Center
Tue 12:09:10 PM 38.5881 -74.9039 219° Southwest 406 467 40,000  Level Washington Center
Tue 12:10:10 PM 38.5011 -74.9947 222° Southwest 401 461 40,000  Level Washington Center
Tue 12:11:09 PM 38.4161 -75.0908 219° Southwest 401 461 40,000  Level Washington Center
Tue 12:12:09 PM 38.3289 -75.1814 220° Southwest 407 468 40,000  Level Washington Center
Tue 12:13:10 PM 38.2394 -75.2772 204° Southwest 407 468 40,000  Level Washington Center
Tue 12:14:10 PM 38.1333 -75.3383 207° Southwest 417 480 40,000  Level Washington Center
Tue 12:15:11 PM 38.0250 -75.4072 207° Southwest 423 487 40,000  Level Washington Center
Tue 12:16:09 PM 37.9208 -75.4733 206° Southwest 428 493 40,000  Level Washington Center
Tue 12:17:09 PM 37.8144 -75.5392 206° Southwest 428 493 40,000  Level Washington Center
Tue 12:18:09 PM 37.7058 -75.6050 206° Southwest 428 493 40,000  Level Washington Center
Tue 12:19:10 PM 37.5975 -75.6731 205° Southwest 428 493 40,000  Level Washington Center
Tue 12:20:11 PM 37.4889 -75.7383 206° Southwest 428 493 40,000  Level Washington Center
Tue 12:21:08 PM 37.3803 -75.8061 206° Southwest 428 493 40,000  Level Washington Center
Tue 12:22:08 PM 37.2719 -75.8711 205° Southwest 428 493 40,000  Level Washington Center
Tue 12:23:09 PM 37.1717 -75.9308 207° Southwest 428 493 40,000  Level Washington Center
Tue 12:24:10 PM 37.0650 -75.9981 204° Southwest 428 493 40,000  Level Washington Center
Tue 12:25:10 PM 36.9394 -76.0675 205° Southwest 438 504 40,000  Level Washington Center
Tue 12:26:08 PM 36.8286 -76.1317 207° Southwest 444 511 40,000  Level Washington Center
Tue 12:27:08 PM 36.7219 -76.1983 207° Southwest 444 511 40,000  Level Washington Center
Tue 12:28:09 PM 36.6214 -76.2622 205° Southwest 444 511 40,000  Level Washington Center
Tue 12:29:10 PM 36.5083 -76.3283 206° Southwest 444 511 40,000  Level Washington Center
Tue 12:30:10 PM 36.3975 -76.3944 204° Southwest 444 511 40,000  Level Washington Center
Tue 12:31:08 PM 36.2844 -76.4578 206° Southwest 444 511 40,000  Level Washington Center
Tue 12:32:08 PM 36.1733 -76.5261 205° Southwest 444 511 40,000  Level Washington Center
Tue 12:33:09 PM 36.0558 -76.5939 207° Southwest 444 511 40,000  Level Washington Center
Tue 12:34:10 PM 35.9447 -76.6644 204° Southwest 444 511 40,000  Level Washington Center
Tue 12:35:10 PM 35.8294 -76.7269 206° Southwest 444 511 40,000  Level Washington Center
Tue 12:36:10 PM 35.7161 -76.7944 206° Southwest 444 511 40,000  Level Washington Center
Tue 12:37:08 PM 35.5922 -76.8692 204° Southwest 444 511 40,000  Level Washington Center
Tue 12:38:09 PM 35.4747 -76.9336 206° Southwest 450 518 40,000  Level Washington Center
Tue 12:39:10 PM 35.3633 -77.0006 204° Southwest 457 526 40,000  Level Washington Center
Tue 12:40:10 PM 35.2436 -77.0672 206° Southwest 462 532 40,000  Level Washington Center
Tue 12:41:10 PM 35.1258 -77.1361 204° Southwest 462 532 40,000  Level Washington Center
Tue 12:42:08 PM 35.0103 -77.1997 205° Southwest 462 532 40,000  Level Washington Center
Tue 12:43:08 PM 34.9031 -77.2608 207° Southwest 469 540 40,000  Level Washington Center
Tue 12:44:09 PM 34.7892 -77.3319 205° Southwest 461 531 40,000  Level Washington Center
Tue 12:45:10 PM 34.6756 -77.3978 203° Southwest 461 531 40,000  Level Washington Center
Tue 12:46:08 PM 34.5600 -77.4583 195° South 461 531 40,000  Level Washington Center
Tue 12:47:09 PM 34.4361 -77.4983 195° South 461 531 40,000  Level Washington Center
Tue 12:49:10 PM 34.1875 -77.5761 192° South 459 528 40,000  Level Jacksonville Center
Tue 12:50:10 PM 34.0594 -77.6089 196° South 461 531 40,000  Level Jacksonville Center
Tue 12:51:10 PM 33.9239 -77.6569 193° South 466 536 40,000  Level Jacksonville Center
Tue 12:52:10 PM 33.8022 -77.6919 196° South 462 532 40,000  Level Jacksonville Center
Tue 12:53:10 PM 33.6808 -77.7339 196° South 462 532 40,000  Level Jacksonville Center
Tue 12:54:10 PM 33.5697 -77.7728 195° South 465 535 40,000  Level Jacksonville Center
Tue 12:55:10 PM 33.4483 -77.8122 195° South 465 535 40,000  Level Jacksonville Center
Tue 12:57:09 PM 33.2072 -77.8881 195° South 455 524 40,000  Level Jacksonville Center
Tue 12:58:09 PM 33.0878 -77.9269 195° South 449 517 40,000  Level Jacksonville Center
Tue 12:59:09 PM 32.9661 -77.9658 194° South 449 517 40,000  Level Jacksonville Center
Tue 01:00:09 PM 32.8486 -78.0019 195° South 449 517 40,000  Level Jacksonville Center
Tue 01:01:09 PM 32.7289 -78.0406 194° South 449 517 40,000  Level Jacksonville Center
Tue 01:02:09 PM 32.6114 -78.0764 195° South 449 517 40,000  Level Jacksonville Center
Tue 01:03:09 PM 32.4939 -78.1147 193° South 449 517 40,000  Level Jacksonville Center
Tue 01:04:09 PM 32.3761 -78.1478 196° South 449 517 40,000  Level Jacksonville Center
Tue 01:05:09 PM 32.2606 -78.1858 194° South 443 510 40,000  Level Jacksonville Center
Tue 01:06:09 PM 32.1431 -78.2211 195° South 443 510 40,000  Level Jacksonville Center
Tue 01:08:09 PM 31.9158 -78.2914 195° South 429 494 40,000  Level Jacksonville Center
Tue 01:09:09 PM 31.8025 -78.3264 196° South 429 494 40,000  Level Jacksonville Center
Tue 01:10:09 PM 31.6850 -78.3664 195° South 429 494 40,000  Level Jacksonville Center
Tue 01:11:10 PM 31.5714 -78.4011 194° South 429 494 40,000  Level Jacksonville Center
Tue 01:12:09 PM 31.4536 -78.4361 195° South 436 502 40,000  Level Jacksonville Center
Tue 01:13:09 PM 31.3381 -78.4733 196° South 431 496 40,000  Level Jacksonville Center
Tue 01:14:10 PM 31.2183 -78.5131 194° South 436 502 40,000  Level Jacksonville Center
Tue 01:15:09 PM 31.1025 -78.5475 194° South 436 502 40,000  Level Jacksonville Center
Tue 01:16:09 PM 30.9578 -78.5881 196° South 468 539 40,000  Level Jacksonville Center
Tue 01:18:13 PM 30.7378 -78.6625 195° South 435 501 40,000  Level Miami Center
Tue 01:19:13 PM 30.6186 -78.6989 197° South 440 506 40,000  Level Miami Center
Tue 01:20:13 PM 30.5014 -78.7403 197° South 440 506 40,000  Level Miami Center
Tue 01:21:13 PM 30.3861 -78.7817 198° South 432 497 40,000  Level Miami Center
Tue 01:22:13 PM 30.2708 -78.8250 196° South 442 509 40,000  Level Miami Center
Tue 01:23:13 PM 30.1558 -78.8636 198° South 442 509 40,000  Level Miami Center
Tue 01:24:13 PM 30.0406 -78.9072 200° South 448 516 40,000  Level Miami Center
Tue 01:25:13 PM 29.9336 -78.9531 195° South 430 495 40,000  Level Miami Center
Tue 01:26:13 PM 29.8161 -78.9889 197° South 430 495 40,000  Level Miami Center
Tue 01:27:13 PM 29.7050 -79.0275 184° South 430 495 40,000  Level Miami Center
Tue 01:28:13 PM 29.5778 -79.0367 190° South 443 510 40,000  Level Miami Center
Tue 01:29:13 PM 29.4586 -79.0606 189° South 434 499 40,000  Level Miami Center
Tue 01:30:13 PM 29.3392 -79.0819 190° South 434 499 40,000  Level Miami Center
Tue 01:31:13 PM 29.2222 -79.1058 186° South 431 496 40,000  Level Miami Center
Tue 01:32:13 PM 29.0944 -79.1222 191° South 443 510 40,000  Level Miami Center
Tue 01:33:13 PM 28.9814 -79.1483 188° South 443 510 40,000  Level Miami Center
Tue 01:34:13 PM 28.8622 -79.1672 190° South 436 502 40,000 -400 Level Miami Center
Tue 01:35:13 PM 28.7408 -79.1906 190° South 436 502 39,200 -1,650 Descending Miami Center
Tue 01:36:13 PM 28.6214 -79.2142 188° South 436 502 36,700 -2,600 Descending Miami Center
Tue 01:37:13 PM 28.5022 -79.2331 190° South 441 507 34,000 -2,450 Descending Miami Center
Tue 01:38:13 PM 28.3808 -79.2564 189° South 441 507 31,800 -2,250 Descending Miami Center
Tue 01:39:13 PM 28.2636 -79.2775 189° South 441 507 29,500 -2,250 Descending Miami Center
Tue 01:40:13 PM 28.1483 -79.2986 189° South 432 497 27,300 -2,200 Descending Miami Center
Tue 01:41:13 PM 28.0458 -79.3175 190° South 407 468 25,100 -1,150 Descending Miami Center
Tue 01:42:13 PM 27.9369 -79.3386 208° Southwest 401 461 25,000 -950 Descending Miami Center
Tue 01:43:13 PM 27.8439 -79.3953 211° Southwest 380 437 23,200 -1,800 Descending Miami Center
Tue 01:44:13 PM 27.7575 -79.4544 211° Southwest 379 436 21,400 -1,950 Descending Miami Center
Tue 01:45:13 PM 27.6644 -79.5181 212° Southwest 367 422 19,300 -1,950 Descending Miami Center
Tue 01:46:13 PM 27.5797 -79.5769 211° Southwest 362 417 17,500 -1,800 Descending Miami Center
Tue 01:47:13 PM 27.4931 -79.6358 212° Southwest 362 417 15,700 -1,800 Descending Miami Center
Tue 01:48:13 PM 27.4231 -79.6856 211° Southwest 357 411 13,900 -1,750 Descending Miami Center
Tue 01:49:13 PM 27.3428 -79.7397 212° Southwest 348 400 12,200 -1,900 Descending Miami Center
Tue 01:50:13 PM 27.2581 -79.7983 210° Southwest 338 389 10,100 -1,433 Descending Miami Center
Tue 01:52:13 PM 27.1142 -79.8928 206° Southwest 316 364 7,900 -1,067 Descending Miami Center
Tue 01:53:13 PM 27.0506 -79.9283 207° Southwest 295 339 6,900 -1,250 Descending Miami Center
Tue 01:54:13 PM 26.9808 -79.9683 213° Southwest 284 327 5,400 -1,450 Descending Miami Center
Tue 01:55:13 PM 26.9131 -80.0178 220° Southwest 284 327 4,000 -700 Descending Miami Center
Tue 01:56:13 PM 26.8575 -80.0700 184° South 268 308 4,000  Level Miami Center
Tue 02:03:15 PM 26.6667 -80.0833 326° Northwest  Level FlightAware Approximate
Tue 02:04:15 PM 26.7577 -80.1510 146° Southeast  Level Estimated
Tue 02:05:15 PM 26.6667 -80.0833 326° Northwest  Level Estimated
Tue 02:06:15 PM 26.7577 -80.1510 146° Southeast  Level Estimated
Tue 02:07:15 PM 26.6667 -80.0833 326° Northwest  Level FlightAware Approximate
Tue 02:08:15 PM 26.7577 -80.1510 326° Northwest  Level Estimated

Login

Don't have an account? Register now (free) for customized features, flight alerts, and more!